createdAt,value
2022-11-20T00:01:21.542Z,3.78
2022-11-20T00:01:46.135Z,3.78
2022-11-20T00:03:48.457Z,3.70
2022-11-20T00:06:17.459Z,4.47
2022-11-20T00:06:46.095Z,4.47
2022-11-20T00:08:44.949Z,4.10
2022-11-20T00:11:20.010Z,4.95
2022-11-20T00:11:46.068Z,4.95
2022-11-20T00:13:48.784Z,4.53
2022-11-20T00:16:17.780Z,4.32
2022-11-20T00:16:46.077Z,4.32
2022-11-20T00:18:44.924Z,4.88
2022-11-20T00:21:14.281Z,4.07
2022-11-20T00:21:46.078Z,4.07
2022-11-20T00:23:41.127Z,5.78
2022-11-20T00:26:10.464Z,3.97
2022-11-20T00:26:46.079Z,3.97
2022-11-20T00:28:37.051Z,4.53
2022-11-20T00:31:05.000Z,5.10
2022-11-20T00:31:46.085Z,5.10
2022-11-20T00:33:31.933Z,6.13
2022-11-20T00:36:07.287Z,5.82
2022-11-20T00:36:46.084Z,5.82
2022-11-20T00:38:34.549Z,5.18
2022-11-20T00:41:06.437Z,5.07
2022-11-20T00:41:46.065Z,5.07
2022-11-20T00:43:32.985Z,3.85
2022-11-20T00:46:00.636Z,4.68
2022-11-20T00:46:46.091Z,4.68
2022-11-20T00:48:27.686Z,5.22
2022-11-20T00:50:54.967Z,4.70
2022-11-20T00:51:46.102Z,4.70
2022-11-20T00:53:22.051Z,3.80
2022-11-20T00:56:00.065Z,4.57
2022-11-20T00:56:46.073Z,4.57
2022-11-20T00:58:31.406Z,5.22
2022-11-20T01:01:18.864Z,5.20
2022-11-20T01:01:46.118Z,5.20
2022-11-20T01:03:47.926Z,4.22
2022-11-20T01:06:29.160Z,4.63
2022-11-20T01:06:46.074Z,4.63
2022-11-20T01:08:57.844Z,5.13
2022-11-20T01:11:27.230Z,4.95
2022-11-20T01:11:46.099Z,4.95
2022-11-20T01:13:54.552Z,4.15
2022-11-20T01:16:23.740Z,8.18
2022-11-20T01:16:46.106Z,8.18
2022-11-20T01:18:52.484Z,5.65
2022-11-20T01:21:31.767Z,5.20
2022-11-20T01:21:46.114Z,5.20
2022-11-20T01:23:59.127Z,4.57
2022-11-20T01:26:28.436Z,5.25
2022-11-20T01:26:46.097Z,5.25
2022-11-20T01:28:55.903Z,5.68
2022-11-20T01:31:25.171Z,4.45
2022-11-20T01:31:46.095Z,4.45
2022-11-20T01:33:54.178Z,12.80
2022-11-20T01:36:22.636Z,9.48
2022-11-20T01:36:46.099Z,9.48
2022-11-20T01:38:52.315Z,17.45
2022-11-20T01:41:37.214Z,5.85
2022-11-20T01:41:46.110Z,5.85
2022-11-20T01:44:05.158Z,4.47
2022-11-20T01:46:35.936Z,4.50
2022-11-20T01:46:46.111Z,4.50
2022-11-20T01:49:07.272Z,6.97
2022-11-20T01:51:40.756Z,4.70
2022-11-20T01:51:46.107Z,4.70
2022-11-20T01:54:12.278Z,5.10
2022-11-20T01:56:42.576Z,5.22
2022-11-20T01:56:46.100Z,5.22
2022-11-20T01:59:11.886Z,4.97
2022-11-20T02:01:40.097Z,4.70
2022-11-20T02:01:46.164Z,4.70
2022-11-20T02:04:09.270Z,4.82
2022-11-20T02:06:49.330Z,5.97
2022-11-20T02:06:49.460Z,5.97
2022-11-20T02:09:16.218Z,4.28
2022-11-20T02:11:42.992Z,5.07
2022-11-20T02:11:46.085Z,5.07
2022-11-20T02:14:10.393Z,3.88
2022-11-20T02:16:40.232Z,3.75
2022-11-20T02:16:46.117Z,3.75
2022-11-20T02:19:13.692Z,4.28
2022-11-20T02:21:50.059Z,3.95
2022-11-20T02:21:50.206Z,3.95
2022-11-20T02:24:19.372Z,4.25
2022-11-20T02:26:56.647Z,4.53
2022-11-20T02:26:56.780Z,4.53
2022-11-20T02:29:29.086Z,3.97
2022-11-20T02:31:46.117Z,3.97
2022-11-20T02:31:57.622Z,4.97
2022-11-20T02:34:24.026Z,5.15
2022-11-20T02:36:46.109Z,5.15
2022-11-20T02:36:53.186Z,4.05
2022-11-20T02:39:22.009Z,5.10
2022-11-20T02:41:46.136Z,5.10
2022-11-20T02:41:48.891Z,5.78
2022-11-20T02:44:15.339Z,5.60
2022-11-20T02:46:41.728Z,5.50
2022-11-20T02:46:46.096Z,5.50
2022-11-20T02:49:08.246Z,4.78
2022-11-20T02:51:34.619Z,4.85
2022-11-20T02:51:46.100Z,4.85
2022-11-20T02:54:01.023Z,4.45
2022-11-20T02:56:27.874Z,4.20
2022-11-20T02:56:46.118Z,4.20
2022-11-20T02:58:54.288Z,4.53
2022-11-20T03:01:20.755Z,4.78
2022-11-20T03:01:46.146Z,4.78
2022-11-20T03:03:49.371Z,5.22
2022-11-20T03:06:17.694Z,5.68
2022-11-20T03:06:46.134Z,5.68
2022-11-20T03:08:44.437Z,5.05
2022-11-20T03:11:10.975Z,3.25
2022-11-20T03:11:46.122Z,3.25
2022-11-20T03:13:37.390Z,4.28
2022-11-20T03:16:18.140Z,5.03
2022-11-20T03:16:46.244Z,5.03
2022-11-20T03:18:44.972Z,3.72
2022-11-20T03:21:13.404Z,4.03
2022-11-20T03:21:46.113Z,4.03
2022-11-20T03:23:40.523Z,4.63
2022-11-20T03:26:19.736Z,4.72
2022-11-20T03:26:46.115Z,4.72
2022-11-20T03:28:54.602Z,4.65
2022-11-20T03:31:24.851Z,4.75
2022-11-20T03:31:46.106Z,4.75
2022-11-20T03:33:51.338Z,3.42
2022-11-20T03:36:19.239Z,5.10
2022-11-20T03:36:46.103Z,5.10
2022-11-20T03:38:46.014Z,4.60
2022-11-20T03:41:15.360Z,3.88
2022-11-20T03:41:46.109Z,3.88
2022-11-20T03:43:42.350Z,4.28
2022-11-20T03:46:08.860Z,4.07
2022-11-20T03:46:46.119Z,4.07
2022-11-20T03:48:35.618Z,4.00
2022-11-20T03:51:09.177Z,4.93
2022-11-20T03:51:46.121Z,4.93
2022-11-20T03:53:35.626Z,3.88
2022-11-20T03:56:02.065Z,4.10
2022-11-20T03:56:46.117Z,4.10
2022-11-20T03:58:28.402Z,4.20
2022-11-20T04:00:54.794Z,4.18
2022-11-20T04:01:49.400Z,4.18
2022-11-20T04:03:21.186Z,6.22
2022-11-20T04:05:47.616Z,4.47
2022-11-20T04:06:46.147Z,4.47
2022-11-20T04:08:13.986Z,4.38
2022-11-20T04:10:40.367Z,4.63
2022-11-20T04:11:46.132Z,4.63
2022-11-20T04:13:06.740Z,3.80
2022-11-20T04:15:38.122Z,4.72
2022-11-20T04:16:46.140Z,4.72
2022-11-20T04:18:04.849Z,4.30
2022-11-20T04:20:31.242Z,4.20
2022-11-20T04:21:46.137Z,4.20
2022-11-20T04:22:57.565Z,4.63
2022-11-20T04:25:24.012Z,4.15
2022-11-20T04:26:46.098Z,4.15
2022-11-20T04:27:50.386Z,3.67
2022-11-20T04:30:16.823Z,5.15
2022-11-20T04:31:46.109Z,5.15
2022-11-20T04:32:43.138Z,4.40
2022-11-20T04:35:09.598Z,4.03
2022-11-20T04:36:46.115Z,4.03
2022-11-20T04:37:35.942Z,3.92
2022-11-20T04:40:02.259Z,4.63
2022-11-20T04:41:46.140Z,4.63
2022-11-20T04:42:31.332Z,4.30
2022-11-20T04:44:58.228Z,3.55
2022-11-20T04:46:46.106Z,3.55
2022-11-20T04:47:24.900Z,4.60
2022-11-20T04:49:51.492Z,4.60
2022-11-20T04:51:46.115Z,4.60
2022-11-20T04:52:17.928Z,4.10
2022-11-20T04:54:44.291Z,3.55
2022-11-20T04:56:46.163Z,3.55
2022-11-20T04:57:14.486Z,4.32
2022-11-20T04:59:41.257Z,4.85
2022-11-20T05:01:46.136Z,4.85
2022-11-20T05:02:07.746Z,4.00
2022-11-20T05:04:34.103Z,4.00
2022-11-20T05:06:46.112Z,4.00
2022-11-20T05:07:00.511Z,4.38
2022-11-20T05:09:26.926Z,3.80
2022-11-20T05:11:50.340Z,3.80
2022-11-20T05:11:53.301Z,3.20
2022-11-20T05:14:19.669Z,4.25
2022-11-20T05:16:46.287Z,5.43
2022-11-20T05:16:46.556Z,5.43
2022-11-20T05:19:12.730Z,5.65
2022-11-20T05:21:39.118Z,3.65
2022-11-20T05:21:46.118Z,3.65
2022-11-20T05:24:06.777Z,3.88
2022-11-20T05:26:33.538Z,4.35
2022-11-20T05:26:46.123Z,4.35
2022-11-20T05:28:59.846Z,4.20
2022-11-20T05:31:28.074Z,3.40
2022-11-20T05:31:46.111Z,3.40
2022-11-20T05:33:56.279Z,3.38
2022-11-20T05:36:22.730Z,4.88
2022-11-20T05:36:46.126Z,4.88
2022-11-20T05:38:51.023Z,3.67
2022-11-20T05:41:19.912Z,3.63
2022-11-20T05:41:46.128Z,3.63
2022-11-20T05:43:47.602Z,4.60
2022-11-20T05:46:15.747Z,4.90
2022-11-20T05:46:46.112Z,4.90
2022-11-20T05:48:43.584Z,17.48
2022-11-20T05:51:12.044Z,3.60
2022-11-20T05:51:46.126Z,3.60
2022-11-20T05:53:39.686Z,3.63
2022-11-20T05:56:10.998Z,3.70
2022-11-20T05:56:46.105Z,3.70
2022-11-20T05:58:38.320Z,4.03
2022-11-20T06:01:05.868Z,4.07
2022-11-20T06:01:46.111Z,4.07
2022-11-20T06:03:32.223Z,4.28
2022-11-20T06:06:00.306Z,4.05
2022-11-20T06:06:46.125Z,4.05
2022-11-20T06:08:26.689Z,4.18
2022-11-20T06:10:53.091Z,4.65
2022-11-20T06:11:46.112Z,4.65
2022-11-20T06:13:19.418Z,4.32
2022-11-20T06:15:50.706Z,4.32
2022-11-20T06:16:46.295Z,4.32
2022-11-20T06:18:17.154Z,4.47
2022-11-20T06:20:43.649Z,3.75
2022-11-20T06:21:46.152Z,3.75
2022-11-20T06:23:10.001Z,4.07
2022-11-20T06:25:41.112Z,3.97
2022-11-20T06:26:46.150Z,3.97
2022-11-20T06:28:08.157Z,3.58
2022-11-20T06:30:34.569Z,3.25
2022-11-20T06:31:46.112Z,3.25
2022-11-20T06:33:00.995Z,5.43
2022-11-20T06:35:27.361Z,4.05
2022-11-20T06:36:46.156Z,4.05
2022-11-20T06:37:53.817Z,4.13
2022-11-20T06:40:20.348Z,3.70
2022-11-20T06:41:46.137Z,3.70
2022-11-20T06:42:46.726Z,4.80
2022-11-20T06:45:13.239Z,2.95
2022-11-20T06:46:46.152Z,2.95
2022-11-20T06:47:39.742Z,3.97
2022-11-20T06:50:06.611Z,2.92
2022-11-20T06:51:46.144Z,2.92
2022-11-20T06:52:35.024Z,4.47
2022-11-20T06:55:03.979Z,4.25
2022-11-20T06:56:46.167Z,4.25
2022-11-20T06:57:30.374Z,3.55
2022-11-20T06:59:56.697Z,3.35
2022-11-20T07:01:46.147Z,3.35
2022-11-20T07:02:23.105Z,3.17
2022-11-20T07:04:49.481Z,4.30
2022-11-20T07:06:46.160Z,4.30
2022-11-20T07:07:15.877Z,3.95
2022-11-20T07:09:42.309Z,3.00
2022-11-20T07:11:46.159Z,3.00
2022-11-20T07:12:09.101Z,4.22
2022-11-20T07:14:35.438Z,3.63
2022-11-20T07:16:46.297Z,3.63
2022-11-20T07:17:01.812Z,3.35
2022-11-20T07:19:28.180Z,4.15
2022-11-20T07:21:46.139Z,4.15
2022-11-20T07:21:54.508Z,3.35
2022-11-20T07:24:21.009Z,3.28
2022-11-20T07:26:46.159Z,3.28
2022-11-20T07:26:49.992Z,4.15
2022-11-20T07:29:17.426Z,4.28
2022-11-20T07:31:43.971Z,3.88
2022-11-20T07:31:46.130Z,3.88
2022-11-20T07:34:10.399Z,3.83
2022-11-20T07:36:36.769Z,3.10
2022-11-20T07:36:46.141Z,3.10
2022-11-20T07:39:03.190Z,4.32
2022-11-20T07:41:29.939Z,3.63
2022-11-20T07:41:46.142Z,3.63
2022-11-20T07:43:56.285Z,4.35
2022-11-20T07:46:22.648Z,4.82
2022-11-20T07:46:46.166Z,4.82
2022-11-20T07:48:49.049Z,3.60
2022-11-20T07:51:15.460Z,3.85
2022-11-20T07:51:47.963Z,3.85
2022-11-20T07:53:41.816Z,3.38
2022-11-20T07:56:08.297Z,3.92
2022-11-20T07:56:46.154Z,3.92
2022-11-20T07:58:35.481Z,4.55
2022-11-20T08:01:06.926Z,5.15
2022-11-20T08:01:46.150Z,5.15
2022-11-20T08:03:33.486Z,4.43
2022-11-20T08:06:03.993Z,3.65
2022-11-20T08:06:46.153Z,3.65
2022-11-20T08:08:33.635Z,4.35
2022-11-20T08:11:35.932Z,3.67
2022-11-20T08:11:46.148Z,3.67
2022-11-20T08:14:14.488Z,4.07
2022-11-20T08:16:46.580Z,4.35
2022-11-20T08:16:47.340Z,4.35
2022-11-20T08:19:14.924Z,3.55
2022-11-20T08:21:41.681Z,4.53
2022-11-20T08:21:46.135Z,4.53
2022-11-20T08:24:10.377Z,4.28
2022-11-20T08:26:38.229Z,3.80
2022-11-20T08:26:46.171Z,3.80
2022-11-20T08:29:05.362Z,3.60
2022-11-20T08:31:32.385Z,4.03
2022-11-20T08:31:46.179Z,4.03
2022-11-20T08:33:59.107Z,3.53
2022-11-20T08:36:25.996Z,5.28
2022-11-20T08:36:46.151Z,5.28
2022-11-20T08:38:55.128Z,5.10
2022-11-20T08:41:32.626Z,4.28
2022-11-20T08:41:46.166Z,4.28
2022-11-20T08:44:07.726Z,4.88
2022-11-20T08:46:42.511Z,5.50
2022-11-20T08:46:46.173Z,5.50
2022-11-20T08:49:11.746Z,4.07
2022-11-20T08:51:39.034Z,4.68
2022-11-20T08:51:46.152Z,4.68
2022-11-20T08:54:06.280Z,4.30
2022-11-20T08:56:32.824Z,4.65
2022-11-20T08:56:46.162Z,4.65
2022-11-20T08:59:23.039Z,4.22
2022-11-20T09:01:46.178Z,4.22
2022-11-20T09:01:48.590Z,4.20
2022-11-20T09:04:15.310Z,5.72
2022-11-20T09:06:41.746Z,4.30
2022-11-20T09:06:46.186Z,4.30
2022-11-20T09:09:08.286Z,5.15
2022-11-20T09:11:36.476Z,3.95
2022-11-20T09:11:46.191Z,3.95
2022-11-20T09:14:03.680Z,5.18
2022-11-20T09:16:30.341Z,5.65
2022-11-20T09:16:46.169Z,5.65
2022-11-20T09:19:13.507Z,5.18
2022-11-20T09:21:43.000Z,4.55
2022-11-20T09:21:46.176Z,4.55
2022-11-20T09:24:09.447Z,5.05
2022-11-20T09:26:35.802Z,4.63
2022-11-20T09:26:46.164Z,4.63
2022-11-20T09:29:02.170Z,5.18
2022-11-20T09:31:28.562Z,3.25
2022-11-20T09:31:46.171Z,3.25
2022-11-20T09:33:54.971Z,5.45
2022-11-20T09:36:21.453Z,4.22
2022-11-20T09:36:46.158Z,4.22
2022-11-20T09:38:48.319Z,4.75
2022-11-20T09:41:26.948Z,4.13
2022-11-20T09:41:46.183Z,4.13
2022-11-20T09:44:06.099Z,4.82
2022-11-20T09:46:51.468Z,4.90
2022-11-20T09:46:51.598Z,4.90
2022-11-20T09:49:49.421Z,4.32
2022-11-20T09:51:46.150Z,4.32
2022-11-20T09:52:21.529Z,4.35
2022-11-20T09:54:48.236Z,4.53
2022-11-20T09:56:46.202Z,4.53
2022-11-20T09:57:19.906Z,4.70
2022-11-20T09:59:56.729Z,4.13
2022-11-20T10:01:46.161Z,4.13
2022-11-20T10:02:36.147Z,5.72
2022-11-20T10:05:11.529Z,4.35
2022-11-20T10:06:51.979Z,4.35
2022-11-20T10:07:45.425Z,5.00
2022-11-20T10:10:28.915Z,4.72
2022-11-20T10:11:46.157Z,4.72
2022-11-20T10:13:28.434Z,6.18
2022-11-20T10:16:30.374Z,4.47
2022-11-20T10:16:46.203Z,4.47
2022-11-20T10:19:22.142Z,5.22
2022-11-20T10:21:46.359Z,5.22
2022-11-20T10:22:25.501Z,6.65
2022-11-20T10:25:17.106Z,4.65
2022-11-20T10:26:46.186Z,4.65
2022-11-20T10:27:53.292Z,4.88
2022-11-20T10:30:22.783Z,5.07
2022-11-20T10:31:46.179Z,5.07
2022-11-20T10:33:16.977Z,4.15
2022-11-20T10:35:48.959Z,5.25
2022-11-20T10:36:46.185Z,5.25
2022-11-20T10:38:32.508Z,4.38
2022-11-20T10:41:22.090Z,5.63
2022-11-20T10:41:46.199Z,5.63
2022-11-20T10:43:52.652Z,4.82
2022-11-20T10:46:23.545Z,5.05
2022-11-20T10:46:46.178Z,5.05
2022-11-20T10:48:51.269Z,6.03
2022-11-20T10:51:27.050Z,4.32
2022-11-20T10:51:46.181Z,4.32
2022-11-20T10:54:05.578Z,6.00
2022-11-20T10:56:46.868Z,5.07
2022-11-20T10:56:50.489Z,5.07
2022-11-20T10:59:36.456Z,5.57
2022-11-20T11:01:46.198Z,5.57
2022-11-20T11:02:15.102Z,5.57
2022-11-20T11:04:46.182Z,6.32
2022-11-20T11:06:46.192Z,6.32
2022-11-20T11:07:26.874Z,5.28
2022-11-20T11:09:55.407Z,6.07
2022-11-20T11:11:46.187Z,6.07
2022-11-20T11:12:24.938Z,5.25
2022-11-20T11:14:53.730Z,7.38
2022-11-20T11:16:46.204Z,7.38
2022-11-20T11:17:27.817Z,5.90
2022-11-20T11:20:11.501Z,5.45
2022-11-20T11:21:49.800Z,5.45
2022-11-20T11:22:49.943Z,6.57
2022-11-20T11:25:31.020Z,5.85
2022-11-20T11:26:46.192Z,5.85
2022-11-20T11:28:00.346Z,6.40
2022-11-20T11:30:29.281Z,6.72
2022-11-20T11:31:46.208Z,6.72
2022-11-20T11:33:07.592Z,8.85
2022-11-20T11:35:34.468Z,5.68
2022-11-20T11:36:46.190Z,5.68
2022-11-20T11:38:08.220Z,5.78
2022-11-20T11:40:39.021Z,4.60
2022-11-20T11:41:46.193Z,4.60
2022-11-20T11:43:28.266Z,6.93
2022-11-20T11:45:56.093Z,5.95
2022-11-20T11:46:46.215Z,5.95
2022-11-20T11:48:23.081Z,7.32
2022-11-20T11:50:51.443Z,5.57
2022-11-20T11:51:46.211Z,5.57
2022-11-20T11:53:20.779Z,5.82
2022-11-20T11:56:03.961Z,6.90
2022-11-20T11:56:46.197Z,6.90
2022-11-20T11:58:39.389Z,6.15
2022-11-20T12:01:43.745Z,6.55
2022-11-20T12:01:46.260Z,6.55
2022-11-20T12:04:42.524Z,5.50
2022-11-20T12:06:46.184Z,5.50
2022-11-20T12:07:46.161Z,5.85
2022-11-20T12:10:21.518Z,5.00
2022-11-20T12:11:46.212Z,5.00
2022-11-20T12:12:53.262Z,6.47
2022-11-20T12:15:47.141Z,6.83
2022-11-20T12:16:46.179Z,6.83
2022-11-20T12:18:18.557Z,6.32
2022-11-20T12:21:03.443Z,6.28
2022-11-20T12:21:46.186Z,6.28
2022-11-20T12:23:45.050Z,6.72
2022-11-20T12:26:36.891Z,6.40
2022-11-20T12:26:46.229Z,6.40
2022-11-20T12:29:19.234Z,7.15
2022-11-20T12:31:57.924Z,6.63
2022-11-20T12:31:58.081Z,6.63
2022-11-20T12:34:56.921Z,6.32
2022-11-20T12:36:46.179Z,6.32
2022-11-20T12:37:47.097Z,6.90
2022-11-20T12:40:36.582Z,5.82
2022-11-20T12:41:46.177Z,5.82
2022-11-20T12:43:43.772Z,6.88
2022-11-20T12:46:37.877Z,6.57
2022-11-20T12:46:46.206Z,6.57
2022-11-20T12:49:35.816Z,5.78
2022-11-20T12:51:46.192Z,5.78
2022-11-20T12:52:25.618Z,6.00
2022-11-20T12:55:14.774Z,5.50
2022-11-20T12:56:46.186Z,5.50
2022-11-20T12:58:02.763Z,6.07
2022-11-20T13:00:31.544Z,5.68
2022-11-20T13:01:46.207Z,5.68
2022-11-20T13:03:09.829Z,5.72
2022-11-20T13:05:46.201Z,6.28
2022-11-20T13:06:46.208Z,6.28
2022-11-20T13:08:22.504Z,6.13
2022-11-20T13:10:58.552Z,6.57
2022-11-20T13:11:46.217Z,6.57
2022-11-20T13:13:57.484Z,6.50
2022-11-20T13:17:06.423Z,5.22
2022-11-20T13:17:06.621Z,5.22
2022-11-20T13:19:33.907Z,5.00
2022-11-20T13:21:46.196Z,5.00
2022-11-20T13:22:00.645Z,6.65
2022-11-20T13:24:30.944Z,6.18
2022-11-20T13:26:46.217Z,6.18
2022-11-20T13:27:13.351Z,6.72
2022-11-20T13:29:43.615Z,5.07
2022-11-20T13:31:46.210Z,5.07
2022-11-20T13:32:17.788Z,6.03
2022-11-20T13:34:55.366Z,6.63
2022-11-20T13:36:46.196Z,6.63
2022-11-20T13:37:38.544Z,6.13
2022-11-20T13:40:13.762Z,6.15
2022-11-20T13:41:46.197Z,6.15
2022-11-20T13:43:18.753Z,5.85
2022-11-20T13:45:56.220Z,6.53
2022-11-20T13:46:46.216Z,6.53
2022-11-20T13:48:25.929Z,6.65
2022-11-20T13:51:01.799Z,6.57
2022-11-20T13:51:46.232Z,6.57
2022-11-20T13:53:43.971Z,8.43
2022-11-20T13:56:25.712Z,6.78
2022-11-20T13:56:46.193Z,6.78
2022-11-20T13:59:12.066Z,6.35
2022-11-20T14:01:43.035Z,6.88
2022-11-20T14:01:46.310Z,6.88
2022-11-20T14:04:10.510Z,6.85
2022-11-20T14:06:43.672Z,6.93
2022-11-20T14:06:46.214Z,6.93
2022-11-20T14:09:31.543Z,7.03
2022-11-20T14:11:46.225Z,7.03
2022-11-20T14:11:58.717Z,7.20
2022-11-20T14:14:29.745Z,5.15
2022-11-20T14:16:46.232Z,5.15
2022-11-20T14:17:17.833Z,5.65
2022-11-20T14:19:46.385Z,6.72
2022-11-20T14:21:46.219Z,6.72
2022-11-20T14:22:23.524Z,6.47
2022-11-20T14:25:06.381Z,6.55
2022-11-20T14:26:46.213Z,6.55
2022-11-20T14:30:05.395Z,5.32
2022-11-20T14:31:49.902Z,5.32
2022-11-20T14:32:32.241Z,6.90
2022-11-20T14:35:09.446Z,7.07
2022-11-20T14:36:46.209Z,7.07
2022-11-20T14:37:39.424Z,6.53
2022-11-20T14:40:26.804Z,7.38
2022-11-20T14:41:46.215Z,7.38
2022-11-20T14:42:53.932Z,6.38
2022-11-20T14:45:22.117Z,6.75
2022-11-20T14:46:46.206Z,6.75
2022-11-20T14:47:49.753Z,6.75
2022-11-20T14:50:25.979Z,5.32
2022-11-20T14:51:46.255Z,5.32
2022-11-20T14:52:58.123Z,7.72
2022-11-20T14:55:33.394Z,6.93
2022-11-20T14:56:46.216Z,6.93
2022-11-20T14:58:08.194Z,5.15
2022-11-20T15:00:36.119Z,7.05
2022-11-20T15:01:46.221Z,7.05
2022-11-20T15:03:02.538Z,6.40
2022-11-20T15:05:49.680Z,5.60
2022-11-20T15:06:46.249Z,5.60
2022-11-20T15:08:17.190Z,6.57
2022-11-20T15:10:49.343Z,6.70
2022-11-20T15:11:46.247Z,6.70
2022-11-20T15:13:21.017Z,5.57
2022-11-20T15:15:49.911Z,6.38
2022-11-20T15:16:46.223Z,6.38
2022-11-20T15:18:22.149Z,7.82
2022-11-20T15:20:48.995Z,6.10
2022-11-20T15:21:46.225Z,6.10
2022-11-20T15:23:19.479Z,6.88
2022-11-20T15:25:47.658Z,6.05
2022-11-20T15:26:46.244Z,6.05
2022-11-20T15:28:32.742Z,5.55
2022-11-20T15:30:59.783Z,5.72
2022-11-20T15:31:46.253Z,5.72
2022-11-20T15:33:26.139Z,5.55
2022-11-20T15:35:52.805Z,5.53
2022-11-20T15:36:46.227Z,5.53
2022-11-20T15:38:19.135Z,6.80
2022-11-20T15:40:45.486Z,5.82
2022-11-20T15:41:46.258Z,5.82
2022-11-20T15:43:13.855Z,5.32
2022-11-20T15:45:55.323Z,7.45
2022-11-20T15:46:46.230Z,7.45
2022-11-20T15:48:27.907Z,5.20
2022-11-20T15:51:12.786Z,5.03
2022-11-20T15:51:46.265Z,5.03
2022-11-20T15:53:41.134Z,6.05
2022-11-20T15:56:12.508Z,5.68
2022-11-20T15:56:46.245Z,5.68
2022-11-20T15:58:39.174Z,5.20
2022-11-20T16:01:05.825Z,5.13
2022-11-20T16:01:46.367Z,5.13
2022-11-20T16:03:32.316Z,4.68
2022-11-20T16:05:58.716Z,5.78
2022-11-20T16:06:46.240Z,5.78
2022-11-20T16:08:25.074Z,7.13
2022-11-20T16:10:51.459Z,6.00
2022-11-20T16:11:46.253Z,6.00
2022-11-20T16:13:38.861Z,5.38
2022-11-20T16:16:10.109Z,5.10
2022-11-20T16:16:46.229Z,5.10
2022-11-20T16:18:36.857Z,5.68
2022-11-20T16:21:03.682Z,4.85
2022-11-20T16:21:46.255Z,4.85
2022-11-20T16:23:30.158Z,5.72
2022-11-20T16:25:56.599Z,6.47
2022-11-20T16:26:46.376Z,6.47
2022-11-20T16:28:23.242Z,5.18
2022-11-20T16:30:49.659Z,4.50
2022-11-20T16:31:46.218Z,4.50
2022-11-20T16:33:18.046Z,5.18
2022-11-20T16:35:44.758Z,6.32
2022-11-20T16:36:46.246Z,6.32
2022-11-20T16:38:11.175Z,4.85
2022-11-20T16:40:37.557Z,4.47
2022-11-20T16:41:46.242Z,4.47
2022-11-20T16:43:10.900Z,5.18
2022-11-20T16:45:44.609Z,5.32
2022-11-20T16:46:46.326Z,5.32
2022-11-20T16:48:16.809Z,4.93
2022-11-20T16:50:51.503Z,4.72
2022-11-20T16:51:46.250Z,4.72
2022-11-20T16:53:19.362Z,4.38
2022-11-20T16:55:46.225Z,5.90
2022-11-20T16:56:46.257Z,5.90
2022-11-20T16:58:13.371Z,4.22
2022-11-20T17:00:40.187Z,4.82
2022-11-20T17:01:46.306Z,4.82
2022-11-20T17:03:07.188Z,4.30
2022-11-20T17:05:34.966Z,4.70
2022-11-20T17:06:46.249Z,4.70
2022-11-20T17:08:02.448Z,4.30
2022-11-20T17:10:28.881Z,4.15
2022-11-20T17:11:46.276Z,4.15
2022-11-20T17:12:55.241Z,5.25
2022-11-20T17:15:21.753Z,3.70
2022-11-20T17:16:46.322Z,3.70
2022-11-20T17:17:48.056Z,4.68
2022-11-20T17:20:14.406Z,4.47
2022-11-20T17:21:46.258Z,4.47
2022-11-20T17:22:40.928Z,3.90
2022-11-20T17:25:07.744Z,3.53
2022-11-20T17:26:46.248Z,3.53
2022-11-20T17:27:34.079Z,4.40
2022-11-20T17:30:00.599Z,3.42
2022-11-20T17:31:46.233Z,3.42
2022-11-20T17:32:27.002Z,4.15
2022-11-20T17:34:53.623Z,3.20
2022-11-20T17:36:46.320Z,3.20
2022-11-20T17:37:20.014Z,3.45
2022-11-20T17:39:46.782Z,3.38
2022-11-20T17:41:46.241Z,3.38
2022-11-20T17:42:29.411Z,3.20
2022-11-20T17:44:58.563Z,3.92
2022-11-20T17:46:46.388Z,3.92
2022-11-20T17:47:25.228Z,3.42
2022-11-20T17:49:51.659Z,3.00
2022-11-20T17:51:46.242Z,3.00
2022-11-20T17:52:18.003Z,3.40
2022-11-20T17:54:44.389Z,3.30
2022-11-20T17:56:46.268Z,3.30
2022-11-20T17:57:29.225Z,3.42
2022-11-20T17:59:55.570Z,3.90
2022-11-20T18:01:46.383Z,3.90
2022-11-20T18:02:22.069Z,3.30
2022-11-20T18:04:48.444Z,3.33
2022-11-20T18:06:46.267Z,3.33
2022-11-20T18:07:14.878Z,3.40
2022-11-20T18:09:41.211Z,3.22
2022-11-20T18:11:46.242Z,3.22
2022-11-20T18:12:07.627Z,3.47
2022-11-20T18:14:35.977Z,3.47
2022-11-20T18:16:46.276Z,3.47
2022-11-20T18:17:05.563Z,3.60
2022-11-20T18:19:44.881Z,3.45
2022-11-20T18:21:46.265Z,3.45
2022-11-20T18:22:22.733Z,3.33
2022-11-20T18:24:49.372Z,3.58
2022-11-20T18:26:46.283Z,3.58
2022-11-20T18:27:19.148Z,3.25
2022-11-20T18:29:48.400Z,3.75
2022-11-20T18:31:46.285Z,3.75
2022-11-20T18:32:14.883Z,3.40
2022-11-20T18:34:41.198Z,3.20
2022-11-20T18:36:46.283Z,3.20
2022-11-20T18:37:09.683Z,3.40
2022-11-20T18:39:36.889Z,3.83
2022-11-20T18:41:46.284Z,3.83
2022-11-20T18:42:22.444Z,3.40
2022-11-20T18:44:51.453Z,3.65
2022-11-20T18:46:46.268Z,3.65
2022-11-20T18:47:19.345Z,3.50
2022-11-20T18:49:52.657Z,3.10
2022-11-20T18:51:46.268Z,3.10
2022-11-20T18:52:25.832Z,3.53
2022-11-20T18:54:53.032Z,3.83
2022-11-20T18:56:46.293Z,3.83
2022-11-20T18:57:21.857Z,3.80
2022-11-20T18:59:48.199Z,4.32
2022-11-20T19:01:46.290Z,4.32
2022-11-20T19:02:17.038Z,3.80
2022-11-20T19:04:43.571Z,3.70
2022-11-20T19:06:46.289Z,3.70
2022-11-20T19:07:13.719Z,4.68
2022-11-20T19:09:45.115Z,3.63
2022-11-20T19:11:46.291Z,3.63
2022-11-20T19:12:12.797Z,3.78
2022-11-20T19:14:39.496Z,3.40
2022-11-20T19:16:46.275Z,3.40
2022-11-20T19:17:07.273Z,4.28
2022-11-20T19:19:34.952Z,3.53
2022-11-20T19:21:46.276Z,3.53
2022-11-20T19:22:01.326Z,3.40
2022-11-20T19:24:28.348Z,4.32
2022-11-20T19:26:46.328Z,4.32
2022-11-20T19:26:56.035Z,4.18
2022-11-20T19:29:23.953Z,4.10
2022-11-20T19:31:46.272Z,4.10
2022-11-20T19:31:50.759Z,4.63
2022-11-20T19:34:17.257Z,4.88
2022-11-20T19:36:45.096Z,7.38
2022-11-20T19:36:46.311Z,7.38
2022-11-20T19:39:11.730Z,6.13
2022-11-20T19:41:39.741Z,7.93
2022-11-20T19:41:46.261Z,7.93
2022-11-20T19:44:09.660Z,4.47
2022-11-20T19:46:37.650Z,7.90
2022-11-20T19:46:46.296Z,7.90
2022-11-20T19:49:05.476Z,4.60
2022-11-20T19:51:34.686Z,5.20
2022-11-20T19:51:46.323Z,5.20
2022-11-20T19:54:01.976Z,4.65
2022-11-20T19:56:30.032Z,5.75
2022-11-20T19:56:46.292Z,5.75
2022-11-20T19:58:57.389Z,5.40
2022-11-20T20:01:27.372Z,3.92
2022-11-20T20:01:46.315Z,3.92
2022-11-20T20:03:55.107Z,3.90
2022-11-20T20:06:24.599Z,5.07
2022-11-20T20:06:46.264Z,5.07
2022-11-20T20:09:12.126Z,4.07
2022-11-20T20:11:39.764Z,3.63
2022-11-20T20:11:46.294Z,3.63
2022-11-20T20:14:08.729Z,4.18
2022-11-20T20:16:35.764Z,3.85
2022-11-20T20:16:46.278Z,3.85
2022-11-20T20:19:03.691Z,4.70
2022-11-20T20:21:31.044Z,4.03
2022-11-20T20:21:46.261Z,4.03
2022-11-20T20:23:58.669Z,3.95
2022-11-20T20:26:26.840Z,3.88
2022-11-20T20:26:46.321Z,3.88
2022-11-20T20:28:53.469Z,4.95
2022-11-20T20:31:22.564Z,3.40
2022-11-20T20:31:46.300Z,3.40
2022-11-20T20:33:49.100Z,4.47
2022-11-20T20:36:17.628Z,5.47
2022-11-20T20:36:46.298Z,5.47
2022-11-20T20:38:45.881Z,3.97
2022-11-20T20:41:13.776Z,4.50
2022-11-20T20:41:46.272Z,4.50
2022-11-20T20:43:59.349Z,3.78
2022-11-20T20:46:25.799Z,4.00
2022-11-20T20:46:46.317Z,4.00
2022-11-20T20:48:54.702Z,4.32
2022-11-20T20:51:22.816Z,4.32
2022-11-20T20:51:46.329Z,4.32
2022-11-20T20:53:49.854Z,3.75
2022-11-20T20:56:17.476Z,4.10
2022-11-20T20:56:46.297Z,4.10
2022-11-20T20:58:43.933Z,3.60
2022-11-20T21:01:13.362Z,3.67
2022-11-20T21:01:46.350Z,3.67
2022-11-20T21:03:39.798Z,4.70
2022-11-20T21:06:07.143Z,3.97
2022-11-20T21:06:46.307Z,3.97
2022-11-20T21:08:33.635Z,5.75
2022-11-20T21:11:06.827Z,4.13
2022-11-20T21:11:46.277Z,4.13
2022-11-20T21:13:34.540Z,3.60
2022-11-20T21:16:01.267Z,4.90
2022-11-20T21:16:46.283Z,4.90
2022-11-20T21:18:27.744Z,3.40
2022-11-20T21:21:13.615Z,4.40
2022-11-20T21:21:46.301Z,4.40
2022-11-20T21:23:41.857Z,3.75
2022-11-20T21:26:09.535Z,3.95
2022-11-20T21:26:46.315Z,3.95
2022-11-20T21:28:37.644Z,4.00
2022-11-20T21:31:09.704Z,3.63
2022-11-20T21:31:46.291Z,3.63
2022-11-20T21:33:41.095Z,3.67
2022-11-20T21:36:09.217Z,3.80
2022-11-20T21:36:46.323Z,3.80
2022-11-20T21:38:36.338Z,3.40
2022-11-20T21:41:07.678Z,4.47
2022-11-20T21:41:46.323Z,4.47
2022-11-20T21:43:34.682Z,3.80
2022-11-20T21:46:05.426Z,3.33
2022-11-20T21:46:46.341Z,3.33
2022-11-20T21:48:32.902Z,4.05
2022-11-20T21:51:28.111Z,6.80
2022-11-20T21:51:46.301Z,6.80
2022-11-20T21:53:55.602Z,5.72
2022-11-20T21:56:24.471Z,6.50
2022-11-20T21:56:46.315Z,6.50
2022-11-20T21:58:53.117Z,6.40
2022-11-20T22:01:24.921Z,4.10
2022-11-20T22:01:46.374Z,4.10
2022-11-20T22:03:54.228Z,5.47
2022-11-20T22:06:21.384Z,4.97
2022-11-20T22:06:46.311Z,4.97
2022-11-20T22:08:48.795Z,4.32
2022-11-20T22:11:18.320Z,3.75
2022-11-20T22:11:46.305Z,3.75
2022-11-20T22:14:04.146Z,4.45
2022-11-20T22:16:30.569Z,3.90
2022-11-20T22:16:46.320Z,3.90
2022-11-20T22:18:58.025Z,3.53
2022-11-20T22:21:27.322Z,4.35